createdAt,value
2019-05-12T00:00:48.401Z,60.58
2019-05-12T00:01:48.120Z,60.51
2019-05-12T00:02:48.438Z,60.38
2019-05-12T00:03:48.514Z,60.00
2019-05-12T00:04:48.696Z,61.23
2019-05-12T00:05:48.321Z,60.28
2019-05-12T00:06:47.871Z,61.92
2019-05-12T00:07:48.793Z,62.23
2019-05-12T00:08:48.734Z,61.44
2019-05-12T00:09:47.955Z,61.44
2019-05-12T00:10:47.838Z,61.23
2019-05-12T00:11:48.459Z,62.15
2019-05-12T00:12:48.197Z,62.77
2019-05-12T00:13:47.802Z,62.66
2019-05-12T00:14:48.504Z,63.28
2019-05-12T00:15:47.654Z,62.36
2019-05-12T00:16:48.952Z,61.54
2019-05-12T00:17:48.102Z,61.23
2019-05-12T00:18:48.332Z,61.23
2019-05-12T00:19:47.946Z,61.54
2019-05-12T00:20:47.657Z,62.87
2019-05-12T00:21:48.269Z,62.15
2019-05-12T00:22:48.153Z,62.98
2019-05-12T00:23:47.663Z,62.05
2019-05-12T00:24:47.874Z,61.54
2019-05-12T00:25:47.996Z,62.98
2019-05-12T00:26:47.768Z,62.15
2019-05-12T00:27:48.678Z,61.44
2019-05-12T00:28:48.238Z,60.92
2019-05-12T00:29:48.585Z,61.95
2019-05-12T00:30:48.593Z,61.95
2019-05-12T00:31:47.784Z,62.26
2019-05-12T00:32:47.845Z,61.64
2019-05-12T00:33:48.058Z,60.51
2019-05-12T00:34:48.030Z,60.41
2019-05-12T00:35:48.283Z,60.72
2019-05-12T00:36:48.394Z,60.61
2019-05-12T00:37:48.568Z,61.44
2019-05-12T00:38:48.433Z,61.85
2019-05-12T00:39:47.833Z,61.33
2019-05-12T00:40:47.922Z,61.74
2019-05-12T00:41:48.209Z,61.13
2019-05-12T00:42:48.430Z,61.74
2019-05-12T00:43:48.285Z,62.05
2019-05-12T00:44:47.891Z,62.56
2019-05-12T00:45:48.162Z,62.77
2019-05-12T00:46:48.571Z,62.05
2019-05-12T00:47:48.098Z,62.26
2019-05-12T00:48:48.222Z,61.44
2019-05-12T00:49:48.013Z,61.95
2019-05-12T00:50:48.156Z,63.18
2019-05-12T00:51:48.374Z,63.18
2019-05-12T00:52:46.126Z,63.59
2019-05-12T00:53:47.889Z,63.18
2019-05-12T00:54:48.262Z,62.66
2019-05-12T00:55:47.657Z,62.87
2019-05-12T00:56:47.992Z,63.49
2019-05-12T00:57:48.014Z,62.87
2019-05-12T00:58:46.035Z,64.10
2019-05-12T00:59:47.791Z,65.12
2019-05-12T01:00:48.140Z,64.10
2019-05-12T01:01:48.064Z,64.00
2019-05-12T01:02:48.511Z,64.41
2019-05-12T01:03:48.054Z,64.20
2019-05-12T01:04:45.949Z,64.10
2019-05-12T01:05:45.972Z,64.54
2019-05-12T01:06:45.931Z,64.20
2019-05-12T01:07:48.210Z,64.92
2019-05-12T01:08:48.379Z,65.64
2019-05-12T01:09:45.955Z,64.41
2019-05-12T01:10:47.840Z,64.20
2019-05-12T01:11:48.005Z,63.90
2019-05-12T01:12:45.867Z,65.03
2019-05-12T01:13:45.852Z,65.33
2019-05-12T01:14:47.821Z,64.82
2019-05-12T01:15:48.028Z,65.44
2019-05-12T01:16:45.819Z,65.44
2019-05-12T01:17:47.787Z,65.12
2019-05-12T01:18:47.991Z,65.12
2019-05-12T01:19:48.468Z,66.16
2019-05-12T01:20:47.952Z,66.67
2019-05-12T01:21:47.989Z,65.84
2019-05-12T01:22:45.751Z,66.36
2019-05-12T01:23:56.350Z,66.25
2019-05-12T01:24:48.312Z,66.46
2019-05-12T01:25:47.815Z,66.16
2019-05-12T01:26:47.624Z,66.36
2019-05-12T01:27:48.241Z,66.46
2019-05-12T01:28:45.680Z,65.84
2019-05-12T01:29:47.912Z,66.36
2019-05-12T01:30:47.798Z,65.95
2019-05-12T01:31:45.652Z,66.05
2019-05-12T01:32:45.661Z,66.36
2019-05-12T01:33:45.633Z,66.67
2019-05-12T01:34:45.619Z,66.46
2019-05-12T01:35:45.643Z,66.46
2019-05-12T01:36:45.595Z,67.18
2019-05-12T01:37:45.577Z,66.87
2019-05-12T01:38:48.145Z,66.87
2019-05-12T01:39:45.558Z,66.87
2019-05-12T01:40:47.507Z,67.49
2019-05-12T01:41:48.014Z,67.49
2019-05-12T01:42:45.526Z,67.41
2019-05-12T01:43:45.517Z,67.38
2019-05-12T01:44:48.060Z,67.18
2019-05-12T01:45:45.501Z,67.72
2019-05-12T01:46:45.542Z,67.59
2019-05-12T01:47:45.495Z,68.10
2019-05-12T01:48:45.466Z,68.72
2019-05-12T01:49:45.459Z,68.82
2019-05-12T01:50:47.451Z,68.21
2019-05-12T01:51:47.547Z,68.62
2019-05-12T01:52:47.698Z,68.34
2019-05-12T01:53:45.399Z,68.24
2019-05-12T01:54:45.412Z,68.54
2019-05-12T01:55:45.389Z,68.96
2019-05-12T01:56:45.374Z,68.54
2019-05-12T01:57:45.361Z,68.21
2019-05-12T01:58:45.361Z,67.59
2019-05-12T01:59:45.337Z,67.32
2019-05-12T02:00:45.324Z,67.79
2019-05-12T02:01:45.310Z,68.00
2019-05-12T02:02:45.340Z,67.49
2019-05-12T02:03:45.292Z,67.62
2019-05-12T02:04:45.328Z,67.49
2019-05-12T02:05:45.272Z,68.51
2019-05-12T02:06:45.255Z,68.00
2019-05-12T02:07:47.775Z,68.82
2019-05-12T02:08:47.604Z,68.82
2019-05-12T02:09:45.225Z,68.13
2019-05-12T02:10:45.210Z,68.44
2019-05-12T02:11:45.207Z,68.65
2019-05-12T02:12:45.199Z,68.00
2019-05-12T02:13:45.177Z,68.00
2019-05-12T02:14:45.192Z,68.30
2019-05-12T02:15:45.157Z,67.62
2019-05-12T02:16:45.149Z,67.59
2019-05-12T02:17:45.151Z,67.69
2019-05-12T02:18:45.135Z,67.90
2019-05-12T02:19:45.116Z,68.13
2019-05-12T02:20:45.105Z,68.13
2019-05-12T02:21:45.094Z,68.54
2019-05-12T02:22:45.102Z,68.41
2019-05-12T02:23:45.075Z,68.00
2019-05-12T02:24:45.071Z,68.72
2019-05-12T02:25:45.053Z,68.24
2019-05-12T02:26:45.040Z,68.00
2019-05-12T02:27:45.030Z,68.13
2019-05-12T02:28:45.015Z,68.13
2019-05-12T02:29:45.016Z,68.85
2019-05-12T02:30:45.001Z,68.44
2019-05-12T02:31:44.989Z,68.44
2019-05-12T02:32:52.423Z,68.44
2019-05-12T02:33:45.955Z,68.34
2019-05-12T02:34:45.761Z,68.24
2019-05-12T02:35:44.945Z,68.34
2019-05-12T02:36:45.133Z,69.06
2019-05-12T02:37:45.343Z,68.34
2019-05-12T02:38:45.461Z,68.75
2019-05-12T02:39:45.063Z,68.24
2019-05-12T02:40:45.028Z,68.65
2019-05-12T02:41:45.184Z,67.83
2019-05-12T02:42:46.271Z,69.26
2019-05-12T02:43:45.777Z,68.85
2019-05-12T02:44:44.847Z,68.96
2019-05-12T02:45:44.852Z,68.44
2019-05-12T02:46:44.957Z,69.37
2019-05-12T02:47:45.882Z,69.16
2019-05-12T02:48:45.106Z,69.57
2019-05-12T02:49:44.992Z,69.16
2019-05-12T02:50:45.284Z,68.54
2019-05-12T02:51:45.657Z,69.16
2019-05-12T02:52:44.754Z,68.34
2019-05-12T02:53:47.070Z,69.26
2019-05-12T02:54:54.466Z,69.37
2019-05-12T02:55:45.756Z,68.96
2019-05-12T02:56:45.008Z,69.06
2019-05-12T02:57:45.325Z,69.78
2019-05-12T02:58:45.370Z,69.78
2019-05-12T02:59:44.928Z,69.78
2019-05-12T03:00:45.580Z,70.32
2019-05-12T03:01:45.299Z,70.29
2019-05-12T03:02:44.658Z,69.98
2019-05-12T03:03:44.632Z,70.08
2019-05-12T03:04:44.620Z,69.70
2019-05-12T03:05:44.619Z,69.70
2019-05-12T03:06:44.806Z,69.47
2019-05-12T03:07:44.910Z,69.47
2019-05-12T03:08:44.981Z,70.39
2019-05-12T03:09:44.830Z,70.12
2019-05-12T03:10:44.946Z,70.32
2019-05-12T03:11:44.790Z,70.22
2019-05-12T03:12:45.120Z,70.18
2019-05-12T03:13:44.963Z,70.22
2019-05-12T03:14:44.887Z,70.29
2019-05-12T03:15:44.747Z,69.88
2019-05-12T03:16:45.356Z,70.08
2019-05-12T03:17:44.528Z,70.84
2019-05-12T03:18:45.115Z,71.21
2019-05-12T03:19:44.936Z,71.35
2019-05-12T03:20:45.485Z,71.45
2019-05-12T03:21:44.457Z,71.35
2019-05-12T03:22:44.978Z,70.53
2019-05-12T03:23:44.955Z,70.94
2019-05-12T03:24:44.966Z,71.25
2019-05-12T03:25:45.578Z,71.45
2019-05-12T03:26:45.086Z,70.94
2019-05-12T03:27:44.641Z,70.63
2019-05-12T03:28:44.793Z,71.14
2019-05-12T03:29:44.971Z,71.35
2019-05-12T03:30:48.534Z,70.73
2019-05-12T03:31:48.702Z,71.04
2019-05-12T03:32:47.375Z,71.04
2019-05-12T03:33:52.230Z,70.94
2019-05-12T03:34:47.335Z,70.94
2019-05-12T03:35:52.251Z,71.04
2019-05-12T03:36:50.629Z,71.04
2019-05-12T03:37:45.457Z,71.14
2019-05-12T03:38:44.972Z,71.25
2019-05-12T03:39:44.832Z,70.94
2019-05-12T03:40:44.981Z,70.84
2019-05-12T03:41:44.663Z,71.21
2019-05-12T03:42:44.606Z,71.14
2019-05-12T03:43:45.003Z,71.25
2019-05-12T03:44:44.622Z,71.04
2019-05-12T03:45:45.349Z,71.21
2019-05-12T03:46:45.619Z,71.86
2019-05-12T03:47:45.457Z,71.31
2019-05-12T03:48:45.425Z,71.35
2019-05-12T03:49:45.435Z,71.42
2019-05-12T03:50:46.075Z,71.52
2019-05-12T03:51:45.662Z,72.48
2019-05-12T03:52:44.970Z,72.44
2019-05-12T03:53:45.511Z,72.68
2019-05-12T03:54:45.202Z,71.52
2019-05-12T03:55:46.955Z,71.66
2019-05-12T03:56:45.083Z,71.86
2019-05-12T03:57:45.097Z,72.75
2019-05-12T03:58:45.236Z,71.72
2019-05-12T03:59:44.970Z,71.97
2019-05-12T04:00:44.753Z,71.97
2019-05-12T04:01:45.031Z,72.55
2019-05-12T04:02:45.359Z,72.65
2019-05-12T04:03:45.126Z,71.62
2019-05-12T04:04:45.345Z,71.62
2019-05-12T04:05:45.200Z,71.52
2019-05-12T04:06:45.248Z,71.31
2019-05-12T04:07:44.998Z,71.42
2019-05-12T04:08:45.554Z,71.21
2019-05-12T04:09:45.147Z,71.42
2019-05-12T04:10:45.368Z,71.31
2019-05-12T04:11:44.509Z,71.31
2019-05-12T04:12:44.820Z,70.80
2019-05-12T04:13:45.241Z,70.80
2019-05-12T04:14:44.895Z,70.70
2019-05-12T04:15:45.401Z,70.29
2019-05-12T04:16:45.160Z,69.84
2019-05-12T04:17:45.288Z,70.29
2019-05-12T04:18:45.027Z,69.98
2019-05-12T04:19:44.702Z,70.80
2019-05-12T04:20:45.190Z,70.05
2019-05-12T04:21:44.776Z,70.80
2019-05-12T04:22:44.618Z,70.90
2019-05-12T04:23:44.453Z,69.78
2019-05-12T04:24:44.550Z,70.18
2019-05-12T04:25:52.362Z,69.88
2019-05-12T04:26:45.140Z,69.67
2019-05-12T04:27:45.119Z,69.78
2019-05-12T04:28:45.567Z,69.98
2019-05-12T04:29:44.233Z,70.26
2019-05-12T04:30:44.533Z,70.80
2019-05-12T04:31:44.364Z,70.08
2019-05-12T04:32:45.165Z,69.98
2019-05-12T04:33:45.236Z,70.18
2019-05-12T04:34:44.667Z,70.08
2019-05-12T04:35:45.152Z,71.01
2019-05-12T04:36:44.885Z,70.29
2019-05-12T04:37:44.990Z,69.88
2019-05-12T04:38:45.014Z,70.18
2019-05-12T04:39:44.716Z,69.26
2019-05-12T04:40:44.956Z,70.05
2019-05-12T04:41:44.731Z,69.88
2019-05-12T04:42:45.212Z,69.98
2019-05-12T04:43:44.732Z,69.88
2019-05-12T04:44:44.854Z,69.98
2019-05-12T04:45:45.147Z,69.78
2019-05-12T04:46:44.997Z,70.18
2019-05-12T04:47:44.971Z,70.70
2019-05-12T04:48:45.307Z,70.29
2019-05-12T04:49:45.164Z,69.98
2019-05-12T04:50:45.203Z,70.08
2019-05-12T04:51:45.236Z,69.88
2019-05-12T04:52:44.527Z,69.78
2019-05-12T04:53:44.924Z,69.67
2019-05-12T04:54:44.512Z,69.06
2019-05-12T04:55:44.601Z,69.33
2019-05-12T04:56:44.595Z,69.37
2019-05-12T04:57:45.134Z,69.37
2019-05-12T04:58:45.066Z,69.84
2019-05-12T04:59:45.070Z,69.23
2019-05-12T05:00:44.840Z,69.13
2019-05-12T05:01:45.300Z,69.02
2019-05-12T05:02:45.495Z,69.84
2019-05-12T05:03:44.269Z,69.23
2019-05-12T05:04:44.134Z,68.85
2019-05-12T05:05:44.419Z,69.43
2019-05-12T05:06:44.867Z,69.95
2019-05-12T05:07:44.801Z,69.33
2019-05-12T05:08:44.308Z,68.92
2019-05-12T05:09:44.254Z,69.23
2019-05-12T05:10:44.364Z,68.92
2019-05-12T05:11:45.087Z,69.33
2019-05-12T05:12:44.912Z,68.41
2019-05-12T05:13:44.382Z,69.43
2019-05-12T05:14:44.577Z,69.71
2019-05-12T05:15:44.586Z,68.82
2019-05-12T05:16:45.130Z,68.30
2019-05-12T05:17:44.127Z,68.17
2019-05-12T05:18:43.937Z,68.82
2019-05-12T05:19:44.122Z,69.30
2019-05-12T05:20:43.832Z,69.10
2019-05-12T05:21:43.742Z,69.10
2019-05-12T05:22:44.008Z,68.04
2019-05-12T05:23:44.321Z,67.02
2019-05-12T05:24:44.393Z,67.73
2019-05-12T05:25:43.534Z,68.35
2019-05-12T05:26:43.577Z,67.52
2019-05-12T05:27:44.342Z,67.52
2019-05-12T05:28:43.634Z,68.55
2019-05-12T05:29:43.769Z,66.71
2019-05-12T05:30:44.091Z,67.11
2019-05-12T05:31:44.181Z,68.01
2019-05-12T05:32:44.436Z,67.29
2019-05-12T05:33:43.561Z,66.88
2019-05-12T05:34:46.013Z,66.37
2019-05-12T05:35:43.963Z,65.34
2019-05-12T05:36:43.442Z,66.47
2019-05-12T05:37:44.171Z,65.75
2019-05-12T05:38:43.673Z,64.62
2019-05-12T05:39:49.257Z,65.31
2019-05-12T05:40:43.892Z,66.13
2019-05-12T05:41:46.475Z,65.62
2019-05-12T05:42:44.166Z,65.62
2019-05-12T05:43:43.759Z,63.78
2019-05-12T05:44:43.468Z,64.70
2019-05-12T05:45:43.860Z,64.90
2019-05-12T05:46:47.713Z,64.60
2019-05-12T05:47:44.438Z,65.93
2019-05-12T05:48:43.976Z,64.80
2019-05-12T05:49:43.448Z,64.29
2019-05-12T05:50:43.878Z,64.70
2019-05-12T05:51:46.661Z,63.98
2019-05-12T05:52:43.950Z,65.01
2019-05-12T05:53:44.211Z,63.88
2019-05-12T05:54:44.006Z,64.60
2019-05-12T05:55:44.227Z,63.40
2019-05-12T05:56:56.955Z,64.42
2019-05-12T05:57:44.357Z,64.94
2019-05-12T05:58:47.114Z,64.42
2019-05-12T05:59:44.695Z,63.91
2019-05-12T06:00:43.455Z,65.62
2019-05-12T06:01:46.894Z,63.68
2019-05-12T06:02:44.279Z,63.88
2019-05-12T06:03:44.151Z,64.09
2019-05-12T06:04:45.415Z,64.39
2019-05-12T06:05:43.612Z,64.09
2019-05-12T06:06:50.775Z,65.11
2019-05-12T06:07:44.341Z,65.01
2019-05-12T06:08:44.267Z,64.50
2019-05-12T06:09:43.291Z,65.52
2019-05-12T06:10:43.507Z,65.31
2019-05-12T06:11:43.763Z,65.11
2019-05-12T06:12:48.737Z,63.95
2019-05-12T06:13:44.307Z,63.57
2019-05-12T06:14:48.777Z,65.31
2019-05-12T06:15:43.527Z,64.36
2019-05-12T06:16:43.359Z,64.26
2019-05-12T06:17:43.864Z,64.06
2019-05-12T06:18:43.991Z,63.88
2019-05-12T06:19:43.763Z,63.75
2019-05-12T06:20:43.663Z,63.88
2019-05-12T06:21:44.009Z,64.16
2019-05-12T06:22:43.769Z,64.77
2019-05-12T06:23:43.427Z,64.67
2019-05-12T06:24:44.161Z,63.75
2019-05-12T06:25:49.380Z,64.87
2019-05-12T06:26:56.804Z,65.15
2019-05-12T06:27:44.343Z,64.33
2019-05-12T06:28:43.972Z,64.51
2019-05-12T06:29:43.756Z,64.30
2019-05-12T06:30:45.036Z,62.74
2019-05-12T06:31:44.131Z,62.16
2019-05-12T06:32:50.189Z,61.54
2019-05-12T06:33:44.664Z,62.46
2019-05-12T06:34:43.561Z,62.29
2019-05-12T06:35:45.133Z,63.00
2019-05-12T06:36:44.075Z,63.00
2019-05-12T06:37:44.324Z,63.10
2019-05-12T06:38:43.474Z,63.21
2019-05-12T06:39:43.570Z,62.59
2019-05-12T06:40:44.700Z,63.10
2019-05-12T06:41:44.351Z,61.91
2019-05-12T06:42:43.607Z,62.93
2019-05-12T06:43:45.177Z,63.44
2019-05-12T06:44:43.801Z,62.83
2019-05-12T06:45:45.334Z,61.50
2019-05-12T06:46:44.113Z,61.50
2019-05-12T06:47:45.275Z,61.98
2019-05-12T06:48:45.374Z,60.96
2019-05-12T06:49:43.955Z,61.36
2019-05-12T06:50:44.143Z,61.57
2019-05-12T06:51:44.330Z,61.06
2019-05-12T06:52:46.802Z,59.73
2019-05-12T06:53:44.348Z,59.22
2019-05-12T06:54:51.040Z,58.81
2019-05-12T06:55:43.384Z,59.22
2019-05-12T06:56:43.537Z,59.45
2019-05-12T06:57:45.929Z,60.68
2019-05-12T06:58:44.258Z,59.63
2019-05-12T06:59:50.543Z,58.70
2019-05-12T07:00:43.777Z,57.17
2019-05-12T07:01:41.982Z,58.40
2019-05-12T07:02:50.091Z,58.61
2019-05-12T07:03:44.066Z,58.68
2019-05-12T07:04:49.792Z,59.57
2019-05-12T07:05:45.174Z,59.47
2019-05-12T07:06:44.097Z,59.23
2019-05-12T07:07:45.745Z,58.93
2019-05-12T07:08:43.848Z,57.40
2019-05-12T07:09:53.637Z,58.42
2019-05-12T07:10:46.031Z,58.32
2019-05-12T07:11:52.844Z,58.52
2019-05-12T07:12:58.259Z,58.55
2019-05-12T07:13:43.637Z,59.27
2019-05-12T07:14:43.820Z,58.25
2019-05-12T07:15:43.766Z,57.93
2019-05-12T07:16:43.755Z,58.25
2019-05-12T07:17:44.324Z,58.75
2019-05-12T07:18:43.702Z,58.55
2019-05-12T07:19:43.599Z,57.43
2019-05-12T07:20:43.511Z,56.51
2019-05-12T07:21:43.882Z,57.53
2019-05-12T07:22:45.816Z,57.56
2019-05-12T07:23:44.442Z,58.48
2019-05-12T07:24:50.188Z,58.17
2019-05-12T07:25:44.442Z,57.45
2019-05-12T07:26:41.705Z,57.97
2019-05-12T07:27:47.331Z,56.94
2019-05-12T07:28:43.376Z,57.35
2019-05-12T07:29:43.606Z,58.17
2019-05-12T07:30:43.898Z,59.30
2019-05-12T07:31:41.649Z,58.58
2019-05-12T07:32:43.356Z,59.27
2019-05-12T07:33:45.049Z,58.86
2019-05-12T07:34:43.634Z,58.93
2019-05-12T07:35:44.154Z,56.07
2019-05-12T07:36:41.593Z,54.31
2019-05-12T07:37:43.626Z,54.28
2019-05-12T07:38:43.416Z,53.47
2019-05-12T07:39:47.269Z,52.86
2019-05-12T07:40:44.387Z,53.06
2019-05-12T07:41:50.407Z,52.42
2019-05-12T07:42:43.878Z,52.42
2019-05-12T07:43:44.162Z,52.42
2019-05-12T07:44:43.983Z,52.83
2019-05-12T07:45:41.492Z,53.85
2019-05-12T07:46:45.649Z,54.26
2019-05-12T07:47:44.802Z,54.57
2019-05-12T07:48:46.555Z,52.62
2019-05-12T07:49:44.104Z,53.55
2019-05-12T07:50:43.353Z,51.91
2019-05-12T07:51:41.437Z,53.14
2019-05-12T07:52:43.985Z,52.01
2019-05-12T07:53:46.802Z,51.84
2019-05-12T07:54:44.379Z,51.30
2019-05-12T07:55:47.446Z,50.69
2019-05-12T07:56:44.250Z,52.62
2019-05-12T07:57:52.882Z,52.42
2019-05-12T07:58:47.489Z,52.42
2019-05-12T07:59:43.786Z,49.98
2019-05-12T08:00:41.333Z,49.26
2019-05-12T08:01:48.644Z,50.79
2019-05-12T08:02:44.418Z,48.85
2019-05-12T08:03:43.532Z,48.24
2019-05-12T08:04:43.892Z,48.03
2019-05-12T08:05:43.758Z,48.03
2019-05-12T08:06:42.449Z,47.94
2019-05-12T08:07:44.502Z,48.06
2019-05-12T08:08:50.196Z,48.03
2019-05-12T08:09:43.240Z,47.83
2019-05-12T08:10:41.218Z,47.32
2019-05-12T08:11:43.247Z,47.71
2019-05-12T08:12:41.190Z,47.20
2019-05-12T08:13:43.662Z,44.45
2019-05-12T08:14:43.833Z,44.45
2019-05-12T08:15:45.670Z,46.69
2019-05-12T08:16:43.748Z,47.79
2019-05-12T08:17:41.142Z,48.38
2019-05-12T08:18:41.241Z,49.90
2019-05-12T08:19:41.193Z,47.95
2019-05-12T08:20:43.378Z,47.54
2019-05-12T08:21:42.598Z,44.79
2019-05-12T08:22:43.839Z,45.61
2019-05-12T08:23:41.068Z,46.72
2019-05-12T08:24:43.639Z,45.00
2019-05-12T08:25:43.769Z,46.01
2019-05-12T08:26:43.425Z,46.50
2019-05-12T08:27:45.254Z,45.07
2019-05-12T08:28:44.140Z,45.99
2019-05-12T08:29:42.843Z,47.60
2019-05-12T08:30:49.724Z,46.76
2019-05-12T08:31:44.044Z,46.64
2019-05-12T08:32:40.983Z,47.45
2019-05-12T08:33:43.479Z,47.66
2019-05-12T08:34:43.582Z,46.74
2019-05-12T08:35:40.935Z,45.72
2019-05-12T08:36:45.065Z,43.18
2019-05-12T08:37:44.177Z,43.26
2019-05-12T08:38:40.901Z,43.26
2019-05-12T08:39:40.893Z,44.97
2019-05-12T08:40:48.754Z,43.67
2019-05-12T08:41:44.269Z,45.09
2019-05-12T08:42:43.410Z,44.81
2019-05-12T08:43:46.901Z,45.03
2019-05-12T08:44:43.981Z,45.21
2019-05-12T08:45:40.831Z,47.55
2019-05-12T08:46:43.241Z,48.34
2019-05-12T08:47:43.890Z,47.94
2019-05-12T08:48:40.796Z,47.91
2019-05-12T08:49:50.097Z,48.44
2019-05-12T08:50:45.362Z,49.87
2019-05-12T08:51:40.759Z,50.56
2019-05-12T08:52:41.973Z,48.22
2019-05-12T08:53:40.764Z,49.41
2019-05-12T08:54:45.421Z,49.21
2019-05-12T08:55:43.591Z,49.01
2019-05-12T08:56:40.701Z,47.59
2019-05-12T08:57:46.412Z,47.30
2019-05-12T08:58:48.198Z,48.11
2019-05-12T08:59:43.996Z,47.83
2019-05-12T09:00:46.510Z,47.71
2019-05-12T09:01:43.721Z,47.97
2019-05-12T09:02:46.118Z,46.14
2019-05-12T09:03:44.090Z,45.39
2019-05-12T09:04:43.125Z,46.71
2019-05-12T09:05:41.609Z,45.37
2019-05-12T09:06:40.599Z,44.87
2019-05-12T09:07:40.585Z,44.66
2019-05-12T09:08:45.191Z,44.89
2019-05-12T09:09:43.807Z,44.68
2019-05-12T09:10:40.594Z,44.50
2019-05-12T09:11:40.539Z,46.30
2019-05-12T09:12:40.539Z,45.19
2019-05-12T09:13:40.519Z,44.06
2019-05-12T09:14:41.427Z,42.23
2019-05-12T09:15:43.567Z,39.80
2019-05-12T09:16:40.496Z,40.41
2019-05-12T09:17:49.058Z,41.28
2019-05-12T09:18:43.538Z,40.45
2019-05-12T09:19:40.454Z,39.22
2019-05-12T09:20:48.896Z,40.61
2019-05-12T09:21:44.046Z,42.03
2019-05-12T09:22:40.429Z,42.32
2019-05-12T09:23:41.453Z,41.39
2019-05-12T09:24:40.407Z,39.47
2019-05-12T09:25:45.310Z,40.58
2019-05-12T09:26:43.325Z,40.50
2019-05-12T09:27:45.650Z,40.90
2019-05-12T09:28:47.487Z,41.10
2019-05-12T09:29:43.433Z,43.30
2019-05-12T09:30:47.515Z,38.57
2019-05-12T09:31:41.319Z,40.92
2019-05-12T09:32:45.368Z,40.73
2019-05-12T09:33:41.303Z,40.44
2019-05-12T09:34:46.946Z,39.64
2019-05-12T09:35:43.572Z,42.05
2019-05-12T09:36:40.274Z,41.64
2019-05-12T09:37:40.664Z,40.33
2019-05-12T09:38:41.088Z,40.15
2019-05-12T09:39:43.591Z,41.36
2019-05-12T09:40:43.532Z,41.06
2019-05-12T09:41:43.966Z,43.46
2019-05-12T09:42:41.217Z,41.22
2019-05-12T09:43:45.203Z,41.63
2019-05-12T09:44:42.007Z,40.30
2019-05-12T09:45:49.773Z,38.70
2019-05-12T09:46:41.167Z,40.64
2019-05-12T09:47:40.149Z,39.42
2019-05-12T09:48:46.951Z,39.44
2019-05-12T09:49:41.117Z,40.64
2019-05-12T09:50:40.113Z,39.00
2019-05-12T09:51:42.915Z,39.00
2019-05-12T09:52:41.103Z,39.50
2019-05-12T09:53:42.838Z,41.00
2019-05-12T09:54:41.177Z,40.68
2019-05-12T09:55:40.062Z,37.35
2019-05-12T09:56:41.306Z,37.89
2019-05-12T09:57:41.162Z,39.50
2019-05-12T09:58:40.029Z,40.21
2019-05-12T09:59:40.038Z,40.39
2019-05-12T10:00:40.000Z,39.48
2019-05-12T10:01:42.942Z,41.59
2019-05-12T10:02:43.135Z,39.37
2019-05-12T10:03:40.210Z,39.95
2019-05-12T10:04:39.973Z,39.35
2019-05-12T10:05:41.381Z,38.54
2019-05-12T10:06:39.937Z,38.64
2019-05-12T10:07:39.926Z,40.68
2019-05-12T10:08:39.917Z,38.84
2019-05-12T10:09:39.905Z,37.73
2019-05-12T10:10:40.807Z,36.42
2019-05-12T10:11:39.906Z,35.03
2019-05-12T10:12:46.264Z,37.16
2019-05-12T10:13:40.880Z,36.66
2019-05-12T10:14:40.711Z,37.57
2019-05-12T10:15:40.871Z,37.68
2019-05-12T10:16:45.708Z,39.08
2019-05-12T10:17:43.261Z,38.56
2019-05-12T10:18:45.436Z,37.77
2019-05-12T10:19:40.804Z,37.35
2019-05-12T10:20:40.036Z,36.86
2019-05-12T10:21:39.780Z,36.98
2019-05-12T10:22:40.446Z,38.80
2019-05-12T10:23:39.790Z,38.59
2019-05-12T10:24:42.326Z,40.39
2019-05-12T10:25:39.738Z,37.85
2019-05-12T10:26:41.127Z,38.86
2019-05-12T10:27:40.736Z,37.93
2019-05-12T10:28:45.348Z,36.42
2019-05-12T10:29:40.690Z,36.93
2019-05-12T10:30:39.686Z,36.54
2019-05-12T10:31:39.677Z,35.63
2019-05-12T10:32:39.664Z,36.74
2019-05-12T10:33:39.665Z,36.13
2019-05-12T10:34:40.456Z,35.72
2019-05-12T10:35:39.628Z,36.12
2019-05-12T10:36:46.902Z,36.52
2019-05-12T10:37:40.606Z,34.79
2019-05-12T10:38:39.621Z,36.20
2019-05-12T10:39:39.591Z,36.71
2019-05-12T10:40:39.584Z,37.29
2019-05-12T10:41:39.561Z,34.86
2019-05-12T10:42:44.863Z,35.06
2019-05-12T10:43:40.538Z,36.87
2019-05-12T10:44:40.853Z,36.17
2019-05-12T10:45:39.525Z,34.36
2019-05-12T10:46:42.311Z,36.47
2019-05-12T10:47:39.507Z,35.36
2019-05-12T10:48:39.492Z,36.07
2019-05-12T10:49:39.481Z,35.65
2019-05-12T10:50:39.483Z,36.66
2019-05-12T10:51:39.478Z,35.55
2019-05-12T10:52:39.486Z,34.54
2019-05-12T10:53:39.436Z,36.44
2019-05-12T10:54:39.426Z,36.44
2019-05-12T10:55:39.418Z,33.92
2019-05-12T10:56:39.412Z,34.94
2019-05-12T10:57:39.400Z,35.65
2019-05-12T10:58:39.396Z,34.74
2019-05-12T10:59:45.233Z,34.45
2019-05-12T11:00:40.368Z,35.97
2019-05-12T11:01:47.144Z,32.95
2019-05-12T11:02:40.347Z,33.45
2019-05-12T11:03:42.954Z,32.95
2019-05-12T11:04:41.250Z,34.66
2019-05-12T11:05:39.315Z,32.63
2019-05-12T11:06:39.709Z,33.94
2019-05-12T11:07:39.293Z,33.13
2019-05-12T11:08:41.251Z,34.25
2019-05-12T11:09:40.294Z,36.47
2019-05-12T11:10:39.261Z,34.66
2019-05-12T11:11:42.293Z,33.84
2019-05-12T11:12:40.238Z,34.14
2019-05-12T11:13:40.262Z,35.75
2019-05-12T11:14:40.259Z,33.64
2019-05-12T11:15:39.682Z,34.83
2019-05-12T11:16:42.522Z,34.20
2019-05-12T11:17:40.169Z,33.69
2019-05-12T11:18:39.172Z,33.97
2019-05-12T11:19:40.776Z,34.98
2019-05-12T11:20:40.166Z,33.25
2019-05-12T11:21:39.141Z,34.17
2019-05-12T11:22:39.124Z,33.67
2019-05-12T11:23:39.113Z,33.87
2019-05-12T11:24:39.102Z,33.99
2019-05-12T11:25:39.109Z,34.07
2019-05-12T11:26:39.088Z,36.08
2019-05-12T11:27:39.093Z,34.07
2019-05-12T11:28:39.060Z,32.76
2019-05-12T11:29:46.307Z,32.58
2019-05-12T11:30:40.052Z,32.48
2019-05-12T11:31:39.033Z,33.57
2019-05-12T11:32:39.025Z,34.16
2019-05-12T11:33:39.009Z,33.23
2019-05-12T11:34:38.996Z,33.42
2019-05-12T11:35:38.998Z,33.11
2019-05-12T11:36:38.981Z,32.70
2019-05-12T11:37:38.990Z,34.19
2019-05-12T11:38:38.954Z,33.22
2019-05-12T11:39:44.659Z,32.12
2019-05-12T11:40:39.956Z,31.13
2019-05-12T11:41:38.929Z,32.43
2019-05-12T11:42:38.915Z,33.32
2019-05-12T11:43:38.907Z,33.20
2019-05-12T11:44:38.914Z,32.89
2019-05-12T11:45:38.881Z,33.39
2019-05-12T11:46:38.886Z,31.29
2019-05-12T11:47:38.863Z,33.39
2019-05-12T11:48:40.351Z,33.47
2019-05-12T11:49:39.847Z,31.38
2019-05-12T11:50:40.373Z,27.47
2019-05-12T11:51:39.827Z,26.98
2019-05-12T11:52:38.818Z,26.61
2019-05-12T11:53:38.804Z,25.00
2019-05-12T11:54:41.261Z,28.03
2019-05-12T11:55:39.779Z,26.32
2019-05-12T11:56:40.289Z,24.01
2019-05-12T11:57:39.760Z,24.71
2019-05-12T11:58:41.245Z,25.43
2019-05-12T11:59:39.738Z,27.62
2019-05-12T12:00:38.744Z,26.91
2019-05-12T12:01:39.661Z,28.62
2019-05-12T12:02:39.707Z,27.29
2019-05-12T12:03:38.700Z,28.17
2019-05-12T12:04:38.695Z,26.96
2019-05-12T12:05:38.672Z,27.36
2019-05-12T12:06:38.685Z,29.65
2019-05-12T12:07:45.705Z,25.93
2019-05-12T12:08:39.672Z,26.34
2019-05-12T12:09:38.642Z,26.34
2019-05-12T12:10:39.988Z,27.35
2019-05-12T12:11:38.651Z,27.55
2019-05-12T12:12:39.625Z,27.35
2019-05-12T12:13:39.586Z,27.67
2019-05-12T12:14:40.099Z,28.08
2019-05-12T12:15:39.566Z,30.90
2019-05-12T12:16:41.911Z,30.38
2019-05-12T12:17:39.595Z,28.95
2019-05-12T12:18:38.539Z,28.64
2019-05-12T12:19:43.871Z,29.22
2019-05-12T12:20:39.516Z,28.41
2019-05-12T12:21:40.387Z,26.51
2019-05-12T12:22:39.497Z,24.63
2019-05-12T12:23:41.003Z,25.73
2019-05-12T12:24:39.471Z,24.93
2019-05-12T12:25:43.011Z,26.23
2019-05-12T12:26:39.454Z,27.32
2019-05-12T12:27:38.448Z,23.93
2019-05-12T12:28:38.442Z,23.14
2019-05-12T12:29:38.423Z,23.06
2019-05-12T12:30:38.417Z,23.96
2019-05-12T12:31:38.950Z,24.29
2019-05-12T12:32:38.414Z,25.49
2019-05-12T12:33:40.662Z,28.09
2019-05-12T12:34:38.378Z,27.96
2019-05-12T12:35:38.365Z,27.65
2019-05-12T12:36:38.353Z,23.84
2019-05-12T12:37:38.367Z,24.14
2019-05-12T12:38:38.326Z,22.65
2019-05-12T12:39:38.315Z,24.44
2019-05-12T12:40:38.303Z,24.63
2019-05-12T12:41:45.692Z,24.23
2019-05-12T12:42:44.177Z,25.11
2019-05-12T12:43:39.276Z,23.93
2019-05-12T12:44:38.273Z,24.44
2019-05-12T12:45:40.420Z,23.94
2019-05-12T12:46:38.239Z,25.85
2019-05-12T12:47:44.347Z,24.65
2019-05-12T12:48:39.238Z,25.56
2019-05-12T12:49:39.905Z,25.35
2019-05-12T12:50:39.203Z,26.45
2019-05-12T12:51:38.189Z,24.33
2019-05-12T12:52:38.759Z,24.05